createdAt,value
2023-03-02T00:00:16.531Z,52.54
2023-03-02T00:02:45.939Z,52.66
2023-03-02T00:05:14.837Z,52.75
2023-03-02T00:11:15.801Z,52.80
2023-03-02T00:13:46.518Z,53.04
2023-03-02T00:16:15.691Z,53.19
2023-03-02T00:18:44.398Z,53.28
2023-03-02T00:21:12.814Z,53.45
2023-03-02T00:23:41.500Z,53.51
2023-03-02T00:26:12.507Z,53.52
2023-03-02T00:28:41.197Z,53.76
2023-03-02T00:31:09.637Z,53.81
2023-03-02T00:33:41.437Z,54.03
2023-03-02T00:36:17.795Z,54.15
2023-03-02T00:38:47.398Z,54.22
2023-03-02T00:41:16.923Z,54.46
2023-03-02T00:43:45.386Z,54.71
2023-03-02T00:46:15.750Z,54.92
2023-03-02T00:48:49.422Z,54.88
2023-03-02T00:51:19.336Z,54.79
2023-03-02T00:53:50.063Z,54.83
2023-03-02T00:56:18.333Z,54.89
2023-03-02T00:58:48.040Z,55.11
2023-03-02T01:01:18.703Z,55.36
2023-03-02T01:03:49.721Z,55.45
2023-03-02T01:06:19.742Z,55.52
2023-03-02T01:08:49.440Z,55.32
2023-03-02T01:11:20.182Z,55.27
2023-03-02T01:13:49.170Z,55.23
2023-03-02T01:16:18.139Z,55.24
2023-03-02T01:18:51.560Z,55.22
2023-03-02T01:21:20.141Z,55.45
2023-03-02T01:23:48.623Z,55.79
2023-03-02T01:26:17.127Z,55.97
2023-03-02T01:28:45.480Z,55.74
2023-03-02T01:31:15.720Z,55.83
2023-03-02T01:33:44.387Z,55.79
2023-03-02T01:36:13.381Z,55.84
2023-03-02T01:38:41.804Z,56.08
2023-03-02T01:41:10.749Z,56.25
2023-03-02T01:43:40.358Z,56.30
2023-03-02T01:46:12.693Z,56.35
2023-03-02T01:48:54.012Z,56.32
2023-03-02T01:51:35.919Z,56.35
2023-03-02T01:54:06.513Z,56.37
2023-03-02T01:56:36.812Z,56.53
2023-03-02T01:59:14.458Z,56.54
2023-03-02T02:01:45.593Z,56.46
2023-03-02T02:04:21.854Z,56.59
2023-03-02T02:06:56.075Z,56.53
2023-03-02T02:09:24.655Z,56.57
2023-03-02T02:11:53.181Z,56.69
2023-03-02T02:14:22.356Z,56.69
2023-03-02T02:16:51.278Z,56.81
2023-03-02T02:20:09.568Z,56.63
2023-03-02T02:22:50.258Z,56.75
2023-03-02T02:25:44.831Z,56.97
2023-03-02T02:28:19.354Z,57.07
2023-03-02T02:30:49.679Z,57.24
2023-03-02T02:33:20.202Z,57.28
2023-03-02T02:35:48.518Z,57.31
2023-03-02T02:38:19.005Z,57.51
2023-03-02T02:40:57.730Z,57.65
2023-03-02T02:43:31.330Z,57.68
2023-03-02T02:46:00.657Z,57.65
2023-03-02T02:48:31.366Z,57.63
2023-03-02T02:51:00.854Z,57.49
2023-03-02T02:53:38.357Z,57.18
2023-03-02T02:56:07.680Z,56.89
2023-03-02T02:58:42.383Z,56.61
2023-03-02T03:01:26.335Z,56.22
2023-03-02T03:04:01.981Z,55.99
2023-03-02T03:06:42.795Z,55.60
2023-03-02T03:09:13.070Z,55.33
2023-03-02T03:11:53.936Z,55.38
2023-03-02T03:14:37.366Z,55.33
2023-03-02T03:17:12.307Z,55.32
2023-03-02T03:19:46.824Z,55.52
2023-03-02T03:22:16.117Z,55.54
2023-03-02T03:24:45.725Z,55.92
2023-03-02T03:27:15.744Z,56.10
2023-03-02T03:29:48.419Z,56.10
2023-03-02T03:32:19.602Z,56.00
2023-03-02T03:34:51.828Z,55.87
2023-03-02T03:37:24.404Z,56.28
2023-03-02T03:39:53.205Z,56.76
2023-03-02T03:42:23.003Z,56.85
2023-03-02T03:44:51.694Z,57.03
2023-03-02T03:47:21.199Z,57.25
2023-03-02T03:49:51.106Z,57.38
2023-03-02T03:52:30.823Z,57.74
2023-03-02T03:55:12.954Z,57.88
2023-03-02T03:57:42.657Z,58.07
2023-03-02T04:00:15.196Z,58.17
2023-03-02T04:02:47.637Z,58.13
2023-03-02T04:05:17.234Z,58.04
2023-03-02T04:07:46.309Z,57.99
2023-03-02T04:10:16.588Z,58.05
2023-03-02T04:12:46.343Z,58.28
2023-03-02T04:15:16.369Z,58.47
2023-03-02T04:17:46.783Z,58.74
2023-03-02T04:20:18.337Z,58.80
2023-03-02T04:22:49.989Z,58.83
2023-03-02T04:25:21.440Z,58.95
2023-03-02T04:27:52.379Z,59.01
2023-03-02T04:30:23.863Z,59.04
2023-03-02T04:32:53.446Z,59.13
2023-03-02T04:35:22.556Z,59.23
2023-03-02T04:37:51.433Z,59.29
2023-03-02T04:40:20.158Z,59.22
2023-03-02T04:42:50.438Z,59.28
2023-03-02T04:45:19.055Z,59.17
2023-03-02T04:47:47.858Z,59.13
2023-03-02T04:50:16.204Z,59.09
2023-03-02T04:52:53.891Z,59.10
2023-03-02T04:55:24.119Z,59.23
2023-03-02T04:57:52.391Z,59.23
2023-03-02T05:00:21.480Z,59.38
2023-03-02T05:02:49.766Z,59.20
2023-03-02T05:05:21.499Z,59.18
2023-03-02T05:07:50.924Z,59.22
2023-03-02T05:10:20.826Z,59.16
2023-03-02T05:12:58.163Z,59.13
2023-03-02T05:15:32.122Z,58.90
2023-03-02T05:18:01.667Z,58.82
2023-03-02T05:20:31.742Z,58.83
2023-03-02T05:23:05.382Z,58.93
2023-03-02T05:25:38.026Z,58.83
2023-03-02T05:28:07.124Z,58.61
2023-03-02T05:30:38.059Z,58.70
2023-03-02T05:33:06.745Z,58.85
2023-03-02T05:35:35.508Z,58.78
2023-03-02T05:38:04.124Z,58.52
2023-03-02T05:40:33.924Z,58.75
2023-03-02T05:43:02.203Z,58.78
2023-03-02T05:45:37.848Z,58.79
2023-03-02T05:48:07.053Z,58.80
2023-03-02T05:50:35.530Z,58.75
2023-03-02T05:53:04.114Z,58.76
2023-03-02T05:55:37.221Z,58.45
2023-03-02T05:58:12.124Z,58.36
2023-03-02T06:00:42.040Z,58.37
2023-03-02T06:03:10.577Z,58.28
2023-03-02T06:05:39.410Z,58.13
2023-03-02T06:08:11.888Z,58.01
2023-03-02T06:10:43.439Z,58.24
2023-03-02T06:13:11.712Z,58.07
2023-03-02T06:15:44.309Z,58.09
2023-03-02T06:18:14.118Z,58.07
2023-03-02T06:20:42.580Z,57.85
2023-03-02T06:23:12.186Z,58.02
2023-03-02T06:25:43.950Z,58.04
2023-03-02T06:28:12.851Z,58.11
2023-03-02T06:30:42.037Z,57.91
2023-03-02T06:33:12.868Z,57.80
2023-03-02T06:35:43.445Z,57.51
2023-03-02T06:38:11.790Z,57.22
2023-03-02T06:40:40.489Z,57.11
2023-03-02T06:43:08.837Z,56.90
2023-03-02T06:45:38.228Z,56.84
2023-03-02T06:48:07.436Z,56.90
2023-03-02T06:50:36.752Z,56.94
2023-03-02T06:53:05.729Z,56.82
2023-03-02T06:55:34.313Z,56.48
2023-03-02T06:58:03.108Z,56.07
2023-03-02T07:00:31.684Z,55.93
2023-03-02T07:03:02.314Z,55.88
2023-03-02T07:05:32.532Z,55.73
2023-03-02T07:08:01.219Z,55.28
2023-03-02T07:10:30.032Z,55.27
2023-03-02T07:12:58.483Z,54.93
2023-03-02T07:15:27.377Z,55.00
2023-03-02T07:17:55.755Z,54.73
2023-03-02T07:20:24.233Z,54.42
2023-03-02T07:22:53.228Z,54.16
2023-03-02T07:25:21.783Z,53.58
2023-03-02T07:27:50.202Z,52.35
2023-03-02T07:30:21.550Z,51.28
2023-03-02T07:32:49.834Z,50.92
2023-03-02T07:35:19.254Z,50.98
2023-03-02T07:37:47.714Z,50.77
2023-03-02T07:40:16.090Z,50.92
2023-03-02T07:42:44.655Z,50.34
2023-03-02T07:45:17.233Z,49.05
2023-03-02T07:47:45.715Z,48.09
2023-03-02T07:50:13.994Z,47.95
2023-03-02T07:52:43.183Z,47.47
2023-03-02T07:55:11.560Z,47.05
2023-03-02T07:57:40.254Z,46.41
2023-03-02T08:00:09.553Z,45.74
2023-03-02T08:02:41.853Z,45.62
2023-03-02T08:05:11.224Z,45.47
2023-03-02T08:07:40.838Z,44.83
2023-03-02T08:10:11.666Z,44.76
2023-03-02T08:12:40.149Z,44.37
2023-03-02T08:15:09.755Z,44.48
2023-03-02T08:17:38.745Z,44.29
2023-03-02T08:20:09.695Z,44.31
2023-03-02T08:22:38.308Z,44.33
2023-03-02T08:25:08.083Z,44.06
2023-03-02T08:27:37.044Z,43.83
2023-03-02T08:30:06.581Z,43.57
2023-03-02T08:32:35.018Z,43.78
2023-03-02T08:35:04.462Z,44.16
2023-03-02T08:37:32.735Z,43.98
2023-03-02T08:40:01.349Z,43.63
2023-03-02T08:42:29.927Z,43.29
2023-03-02T08:44:59.196Z,42.96
2023-03-02T08:47:29.826Z,43.33
2023-03-02T08:49:58.204Z,44.10
2023-03-02T08:52:26.577Z,43.92
2023-03-02T08:54:55.220Z,44.26
2023-03-02T08:57:23.748Z,44.32
2023-03-02T08:59:52.852Z,44.53
2023-03-02T09:02:21.122Z,44.89
2023-03-02T09:04:50.217Z,44.99
2023-03-02T09:07:19.508Z,44.82
2023-03-02T09:09:49.114Z,44.18
2023-03-02T09:12:18.382Z,44.01
2023-03-02T09:14:46.793Z,44.07
2023-03-02T09:17:15.991Z,43.92
2023-03-02T09:19:44.879Z,43.64
2023-03-02T09:22:13.580Z,43.65
2023-03-02T09:24:42.045Z,43.66
2023-03-02T09:27:10.529Z,43.63
2023-03-02T09:29:39.011Z,43.51
2023-03-02T09:32:08.118Z,43.26
2023-03-02T09:34:36.796Z,43.12
2023-03-02T09:37:05.083Z,42.52
2023-03-02T09:39:33.724Z,42.41
2023-03-02T09:42:10.749Z,42.18
2023-03-02T09:45:08.604Z,41.98
2023-03-02T09:47:39.957Z,41.40
2023-03-02T09:50:27.686Z,40.96
2023-03-02T09:53:33.536Z,40.53
2023-03-02T09:56:03.391Z,40.07
2023-03-02T09:58:36.256Z,39.60
2023-03-02T10:01:09.221Z,39.71
2023-03-02T10:04:02.509Z,39.62
2023-03-02T10:06:31.790Z,39.49
2023-03-02T10:09:00.462Z,39.20
2023-03-02T10:11:40.229Z,39.32
2023-03-02T10:14:15.667Z,39.69
2023-03-02T10:16:52.938Z,39.61
2023-03-02T10:19:44.865Z,39.60
2023-03-02T10:22:29.124Z,39.21
2023-03-02T10:24:59.142Z,38.68
2023-03-02T10:27:51.591Z,38.43
2023-03-02T10:30:31.424Z,38.49
2023-03-02T10:33:19.472Z,38.52
2023-03-02T10:35:52.220Z,38.68
2023-03-02T10:38:23.607Z,38.69
2023-03-02T10:41:02.437Z,38.93
2023-03-02T10:43:34.896Z,38.60
2023-03-02T10:46:05.474Z,38.65
2023-03-02T10:48:51.000Z,38.54
2023-03-02T10:51:29.434Z,38.61
2023-03-02T10:54:11.616Z,38.83
2023-03-02T10:56:43.173Z,38.03
2023-03-02T10:59:27.209Z,38.06
2023-03-02T11:02:25.591Z,37.96
2023-03-02T11:04:57.593Z,37.88
2023-03-02T11:07:28.183Z,38.03
2023-03-02T11:10:06.820Z,38.13
2023-03-02T11:12:36.717Z,38.27
2023-03-02T11:15:46.005Z,37.95
2023-03-02T11:18:22.424Z,37.46
2023-03-02T11:20:52.849Z,37.52
2023-03-02T11:23:24.971Z,37.48
2023-03-02T11:25:58.894Z,37.61
2023-03-02T11:28:53.584Z,37.54
2023-03-02T11:31:47.362Z,37.52
2023-03-02T11:34:35.020Z,37.77
2023-03-02T11:37:13.739Z,37.86
2023-03-02T11:39:55.119Z,37.95
2023-03-02T11:42:30.856Z,37.60
2023-03-02T11:45:27.522Z,37.83
2023-03-02T11:48:33.270Z,37.80
2023-03-02T11:51:04.840Z,37.74
2023-03-02T11:53:37.377Z,37.77
2023-03-02T11:56:05.672Z,37.90
2023-03-02T11:58:34.462Z,38.30
2023-03-02T12:01:03.146Z,38.39
2023-03-02T12:03:31.957Z,38.46
2023-03-02T12:06:01.438Z,38.72
2023-03-02T12:08:44.692Z,38.81
2023-03-02T12:11:19.284Z,38.69
2023-03-02T12:13:50.235Z,38.80
2023-03-02T12:16:23.559Z,38.70
2023-03-02T12:18:52.616Z,38.93
2023-03-02T12:21:24.270Z,39.48
2023-03-02T12:23:52.760Z,39.50
2023-03-02T12:26:21.139Z,39.52
2023-03-02T12:28:58.866Z,39.69
2023-03-02T12:31:28.099Z,39.61
2023-03-02T12:33:56.915Z,39.49
2023-03-02T12:36:40.146Z,39.61
2023-03-02T12:39:30.951Z,39.75
2023-03-02T12:42:27.688Z,39.57
2023-03-02T12:45:04.798Z,39.72
2023-03-02T12:47:33.403Z,39.67
2023-03-02T12:50:05.006Z,39.48
2023-03-02T12:52:35.736Z,39.64
2023-03-02T12:55:09.753Z,39.55
2023-03-02T12:58:08.865Z,39.24
2023-03-02T13:00:37.327Z,39.22
2023-03-02T13:03:10.010Z,39.50
2023-03-02T13:05:38.318Z,39.57
2023-03-02T13:08:09.331Z,39.49
2023-03-02T13:10:42.661Z,39.59
2023-03-02T13:13:38.987Z,39.59
2023-03-02T13:16:18.134Z,39.35
2023-03-02T13:18:47.376Z,39.45
2023-03-02T13:21:15.754Z,39.46
2023-03-02T13:23:48.849Z,39.50
2023-03-02T13:26:33.339Z,39.60
2023-03-02T13:29:20.928Z,39.67
2023-03-02T13:31:49.986Z,39.73
2023-03-02T13:34:28.833Z,39.53
2023-03-02T13:36:57.406Z,39.24
2023-03-02T13:39:29.118Z,39.36
2023-03-02T13:41:58.484Z,39.10
2023-03-02T13:44:29.435Z,39.21
2023-03-02T13:46:58.525Z,39.59
2023-03-02T13:49:35.447Z,39.69
2023-03-02T13:52:07.077Z,39.65
2023-03-02T13:54:37.110Z,39.71
2023-03-02T13:57:05.954Z,39.56
2023-03-02T13:59:37.306Z,39.61
2023-03-02T14:02:19.110Z,39.95
2023-03-02T14:04:47.494Z,39.81
2023-03-02T14:07:17.899Z,40.03
2023-03-02T14:09:46.179Z,40.06
2023-03-02T14:12:27.456Z,40.43
2023-03-02T14:14:57.629Z,40.56
2023-03-02T14:17:26.048Z,40.75
2023-03-02T14:19:56.800Z,40.70
2023-03-02T14:22:26.401Z,40.61
2023-03-02T14:24:55.912Z,40.50
2023-03-02T14:27:26.135Z,40.55
2023-03-02T14:29:54.802Z,40.72
2023-03-02T14:32:23.446Z,40.81
2023-03-02T14:34:52.378Z,40.58
2023-03-02T14:37:22.496Z,40.55
2023-03-02T14:39:54.111Z,40.56
2023-03-02T14:42:23.663Z,40.50
2023-03-02T14:44:52.242Z,40.59
2023-03-02T14:47:21.923Z,40.57
2023-03-02T14:49:50.875Z,41.04
2023-03-02T14:52:21.780Z,41.29
2023-03-02T14:54:54.661Z,41.44
2023-03-02T14:57:27.955Z,41.45
2023-03-02T15:00:00.113Z,41.73
2023-03-02T15:02:28.798Z,41.49
2023-03-02T15:05:13.071Z,41.27
2023-03-02T15:07:44.203Z,40.86
2023-03-02T15:10:19.855Z,40.88
2023-03-02T15:12:48.235Z,40.95
2023-03-02T15:15:16.846Z,41.11
2023-03-02T15:17:45.811Z,41.27
2023-03-02T15:20:17.398Z,41.26
2023-03-02T15:22:47.380Z,41.66
2023-03-02T15:25:17.418Z,41.82
2023-03-02T15:27:46.999Z,41.73
2023-03-02T15:30:15.789Z,41.73
2023-03-02T15:32:44.168Z,41.75
2023-03-02T15:35:12.847Z,41.74
2023-03-02T15:37:45.281Z,41.89
2023-03-02T15:40:13.903Z,42.30
2023-03-02T15:42:42.183Z,42.42
2023-03-02T15:45:11.391Z,42.47
2023-03-02T15:47:39.755Z,42.79
2023-03-02T15:50:09.069Z,43.08
2023-03-02T15:52:37.635Z,43.17
2023-03-02T15:55:06.324Z,43.67
2023-03-02T15:57:39.521Z,44.04
2023-03-02T16:00:13.682Z,44.06
2023-03-02T16:02:43.459Z,44.01
2023-03-02T16:05:12.735Z,43.99
2023-03-02T16:07:41.124Z,44.14
2023-03-02T16:10:15.348Z,44.70
2023-03-02T16:12:43.827Z,45.28
2023-03-02T16:15:14.852Z,45.08
2023-03-02T16:17:47.940Z,45.12
2023-03-02T16:20:16.853Z,45.42
2023-03-02T16:22:45.828Z,45.45
2023-03-02T16:25:14.213Z,45.80
2023-03-02T16:27:47.289Z,46.03
2023-03-02T16:30:20.761Z,46.20
2023-03-02T16:32:51.279Z,46.60
2023-03-02T16:35:19.817Z,46.86
2023-03-02T16:37:48.565Z,46.91
2023-03-02T16:40:17.499Z,47.10
2023-03-02T16:42:47.492Z,47.35
2023-03-02T16:45:16.178Z,47.44
2023-03-02T16:47:44.967Z,47.77
2023-03-02T16:50:14.062Z,48.01
2023-03-02T16:52:42.440Z,48.07
2023-03-02T16:55:13.487Z,48.18
2023-03-02T16:57:42.457Z,48.33
2023-03-02T17:00:12.854Z,48.30
2023-03-02T17:02:42.207Z,48.53
2023-03-02T17:05:11.602Z,48.44
2023-03-02T17:07:41.220Z,48.28
2023-03-02T17:10:12.306Z,48.24
2023-03-02T17:12:41.925Z,48.16
2023-03-02T17:15:13.514Z,48.19
2023-03-02T17:17:42.524Z,48.22
2023-03-02T17:20:13.275Z,48.13
2023-03-02T17:22:41.621Z,48.34
2023-03-02T17:25:11.538Z,48.48
2023-03-02T17:27:40.722Z,48.53
2023-03-02T17:30:13.724Z,48.54
2023-03-02T17:32:42.458Z,48.70
2023-03-02T17:35:11.592Z,48.96
2023-03-02T17:37:42.046Z,49.00
2023-03-02T17:40:18.382Z,49.11
2023-03-02T17:42:46.864Z,49.30
2023-03-02T17:45:19.845Z,49.21
2023-03-02T17:47:50.275Z,49.26
2023-03-02T17:50:18.759Z,49.42
2023-03-02T17:52:47.743Z,49.34
2023-03-02T17:55:17.055Z,49.36
2023-03-02T17:57:45.728Z,49.46
2023-03-02T18:00:21.753Z,49.39
2023-03-02T18:02:52.706Z,49.63
2023-03-02T18:05:22.537Z,49.75
2023-03-02T18:07:52.755Z,49.70
2023-03-02T18:10:22.470Z,49.79
2023-03-02T18:12:52.761Z,49.75
2023-03-02T18:15:23.681Z,49.63
2023-03-02T18:17:52.312Z,49.83
2023-03-02T18:20:20.896Z,49.68
2023-03-02T18:22:50.503Z,49.71
2023-03-02T18:25:23.191Z,49.89
2023-03-02T18:27:52.429Z,49.84
2023-03-02T18:30:21.470Z,49.65
2023-03-02T18:32:49.722Z,49.90
2023-03-02T18:35:19.670Z,49.91
2023-03-02T18:37:48.072Z,50.03
2023-03-02T18:40:19.498Z,50.08
2023-03-02T18:42:48.685Z,50.12
2023-03-02T18:45:28.655Z,50.12
2023-03-02T18:47:58.344Z,49.96
2023-03-02T18:50:28.158Z,50.05
2023-03-02T18:52:56.736Z,50.21
2023-03-02T18:55:25.421Z,50.05
2023-03-02T18:57:55.246Z,50.10
2023-03-02T19:00:27.340Z,50.28
2023-03-02T19:02:58.443Z,50.40
2023-03-02T19:05:27.248Z,50.66
2023-03-02T19:08:00.627Z,50.80
2023-03-02T19:10:29.824Z,50.83
2023-03-02T19:12:58.307Z,50.83
2023-03-02T19:15:26.687Z,50.93
2023-03-02T19:17:55.275Z,50.96
2023-03-02T19:20:25.081Z,51.03
2023-03-02T19:22:55.200Z,51.04
2023-03-02T19:25:24.502Z,51.13
2023-03-02T19:27:52.776Z,51.34
2023-03-02T19:30:26.697Z,51.31
2023-03-02T19:32:55.183Z,51.54
2023-03-02T19:35:25.410Z,51.35
2023-03-02T19:37:53.758Z,51.61
2023-03-02T19:40:24.706Z,51.44
2023-03-02T19:42:53.386Z,51.61
2023-03-02T19:45:24.071Z,51.58
2023-03-02T19:47:59.155Z,51.63
2023-03-02T19:50:47.397Z,51.79
2023-03-02T19:53:17.300Z,52.03
2023-03-02T19:55:45.688Z,52.06
2023-03-02T19:58:19.903Z,52.17
2023-03-02T20:00:49.231Z,52.28
2023-03-02T20:03:17.697Z,52.16
2023-03-02T20:05:47.079Z,52.04
2023-03-02T20:08:17.204Z,52.08
2023-03-02T20:10:50.901Z,52.09
2023-03-02T20:13:19.789Z,52.18
2023-03-02T20:15:48.384Z,52.29
2023-03-02T20:18:19.579Z,52.17
2023-03-02T20:20:48.700Z,52.35
2023-03-02T20:23:17.922Z,52.33
2023-03-02T20:25:48.306Z,52.39
2023-03-02T20:28:22.788Z,52.33
2023-03-02T20:30:56.206Z,52.47
2023-03-02T20:33:30.992Z,52.61
2023-03-02T20:36:02.431Z,52.69
2023-03-02T20:38:39.618Z,52.81
2023-03-02T20:41:08.097Z,52.84
2023-03-02T20:43:39.650Z,52.82
2023-03-02T20:46:08.482Z,52.98
2023-03-02T20:48:37.351Z,52.97
2023-03-02T20:51:06.012Z,52.94
2023-03-02T20:53:37.256Z,52.78
2023-03-02T20:56:06.451Z,52.90
2023-03-02T20:58:35.856Z,53.00
2023-03-02T21:01:04.476Z,53.17
2023-03-02T21:03:33.736Z,53.28
2023-03-02T21:06:03.447Z,53.29
2023-03-02T21:08:39.229Z,53.45
2023-03-02T21:11:17.072Z,53.34
2023-03-02T21:13:46.200Z,53.29
2023-03-02T21:16:18.663Z,53.25
2023-03-02T21:18:50.423Z,53.27
2023-03-02T21:21:20.205Z,53.29
2023-03-02T21:23:51.485Z,53.41
2023-03-02T21:26:20.784Z,53.47
2023-03-02T21:28:49.160Z,53.59
2023-03-02T21:31:18.469Z,53.66
2023-03-02T21:33:47.152Z,53.80
2023-03-02T21:36:22.501Z,53.78
2023-03-02T21:38:51.579Z,53.74
2023-03-02T21:41:19.857Z,53.60
2023-03-02T21:43:49.372Z,53.57
2023-03-02T21:46:20.247Z,53.68
2023-03-02T21:48:49.214Z,53.76
2023-03-02T21:51:17.789Z,53.93
2023-03-02T21:53:46.569Z,53.97
2023-03-02T21:56:20.977Z,53.86
2023-03-02T21:58:55.435Z,53.88
2023-03-02T22:01:24.992Z,53.76
2023-03-02T22:03:53.588Z,53.69
2023-03-02T22:06:30.681Z,53.66
2023-03-02T22:08:59.262Z,53.81
2023-03-02T22:11:29.586Z,53.89
2023-03-02T22:13:59.510Z,54.08
2023-03-02T22:16:29.248Z,54.12
2023-03-02T22:22:26.990Z,54.12
2023-03-02T22:24:57.929Z,54.02
2023-03-02T22:27:28.261Z,53.94
2023-03-02T22:30:00.329Z,54.02
2023-03-02T22:32:30.879Z,54.10
2023-03-02T22:35:23.438Z,54.31
2023-03-02T22:37:53.301Z,54.41
2023-03-02T22:40:29.982Z,54.39
2023-03-02T22:43:23.237Z,54.28
2023-03-02T22:45:53.776Z,54.33
2023-03-02T22:48:23.373Z,54.40
2023-03-02T22:50:51.667Z,54.56
2023-03-02T22:53:31.193Z,54.55
2023-03-02T22:56:03.356Z,54.69
2023-03-02T22:58:36.345Z,54.82
2023-03-02T23:01:13.200Z,54.76
2023-03-02T23:03:43.957Z,54.70
2023-03-02T23:06:22.264Z,54.57
2023-03-02T23:08:58.165Z,54.63
2023-03-02T23:11:27.115Z,54.70
2023-03-02T23:13:55.898Z,54.87
2023-03-02T23:16:25.971Z,55.04
2023-03-02T23:18:55.962Z,55.16
2023-03-02T23:21:35.788Z,55.23
2023-03-02T23:24:05.707Z,55.13
2023-03-02T23:26:34.584Z,55.27
2023-03-02T23:29:22.944Z,55.18
2023-03-02T23:31:55.021Z,55.22
2023-03-02T23:34:25.138Z,55.25
2023-03-02T23:36:56.254Z,55.31
2023-03-02T23:39:24.731Z,55.42
2023-03-02T23:41:53.449Z,55.44
2023-03-02T23:44:21.996Z,55.54
2023-03-02T23:46:52.295Z,55.47
2023-03-02T23:49:21.109Z,55.48
2023-03-02T23:51:50.004Z,55.52
2023-03-02T23:54:19.397Z,55.59
2023-03-02T23:56:48.404Z,55.79
2023-03-02T23:59:17.382Z,55.89
